sensor_id;sensor_type;location;lat;lon;timestamp;pressure;altitude;pressure_sealevel;temperature
30765;BMP180;494;48.744;10.106;2022-08-16T00:01:24;94994.00;;;17.50
30765;BMP180;494;48.744;10.106;2022-08-16T00:04:00;94990.00;;;18.00
30765;BMP180;494;48.744;10.106;2022-08-16T00:06:32;95171.00;;;17.90
30765;BMP180;494;48.744;10.106;2022-08-16T00:09:05;95172.00;;;17.90
30765;BMP180;494;48.744;10.106;2022-08-16T00:11:37;95172.00;;;17.90
30765;BMP180;494;48.744;10.106;2022-08-16T00:14:10;95177.00;;;17.90
30765;BMP180;494;48.744;10.106;2022-08-16T00:16:39;95197.00;;;17.90
30765;BMP180;494;48.744;10.106;2022-08-16T00:19:31;95010.00;;;17.90
30765;BMP180;494;48.744;10.106;2022-08-16T00:22:10;95042.00;;;17.10
30765;BMP180;494;48.744;10.106;2022-08-16T00:24:41;94948.00;;;17.80
30765;BMP180;494;48.744;10.106;2022-08-16T00:27:14;95173.00;;;17.80
30765;BMP180;494;48.744;10.106;2022-08-16T00:29:43;95223.00;;;17.90
30765;BMP180;494;48.744;10.106;2022-08-16T00:32:13;95003.00;;;17.90
30765;BMP180;494;48.744;10.106;2022-08-16T00:34:45;95201.00;;;17.80
30765;BMP180;494;48.744;10.106;2022-08-16T00:37:24;95194.00;;;17.10
30765;BMP180;494;48.744;10.106;2022-08-16T00:40:19;95181.00;;;17.00
30765;BMP180;494;48.744;10.106;2022-08-16T00:43:05;95156.00;;;17.20
30765;BMP180;494;48.744;10.106;2022-08-16T00:45:53;95180.00;;;17.80
30765;BMP180;494;48.744;10.106;2022-08-16T00:48:28;95175.00;;;17.80
30765;BMP180;494;48.744;10.106;2022-08-16T00:51:14;94710.00;;;16.70
30765;BMP180;494;48.744;10.106;2022-08-16T00:53:46;95180.00;;;17.80
30765;BMP180;494;48.744;10.106;2022-08-16T00:56:21;95177.00;;;17.70
30765;BMP180;494;48.744;10.106;2022-08-16T00:59:14;95181.00;;;17.70
30765;BMP180;494;48.744;10.106;2022-08-16T01:01:44;95181.00;;;17.70
30765;BMP180;494;48.744;10.106;2022-08-16T01:04:20;95182.00;;;17.60
30765;BMP180;494;48.744;10.106;2022-08-16T01:06:57;95185.00;;;17.70
30765;BMP180;494;48.744;10.106;2022-08-16T01:09:33;95203.00;;;17.60
30765;BMP180;494;48.744;10.106;2022-08-16T01:12:07;95179.00;;;17.60
30765;BMP180;494;48.744;10.106;2022-08-16T01:14:47;95182.00;;;17.60
30765;BMP180;494;48.744;10.106;2022-08-16T01:17:20;95064.00;;;17.60
30765;BMP180;494;48.744;10.106;2022-08-16T01:19:55;95183.00;;;17.50
30765;BMP180;494;48.744;10.106;2022-08-16T01:22:46;95213.00;;;17.50
30765;BMP180;494;48.744;10.106;2022-08-16T01:25:24;95202.00;;;17.40
30765;BMP180;494;48.744;10.106;2022-08-16T01:28:05;95211.00;;;17.20
30765;BMP180;494;48.744;10.106;2022-08-16T01:30:39;95132.00;;;16.00
30765;BMP180;494;48.744;10.106;2022-08-16T01:33:19;95246.00;;;17.10
30765;BMP180;494;48.744;10.106;2022-08-16T01:35:52;95204.00;;;17.10
30765;BMP180;494;48.744;10.106;2022-08-16T01:38:29;95156.00;;;17.00
30765;BMP180;494;48.744;10.106;2022-08-16T01:41:04;95226.00;;;16.70
30765;BMP180;494;48.744;10.106;2022-08-16T01:43:36;95237.00;;;17.10
30765;BMP180;494;48.744;10.106;2022-08-16T01:46:21;95195.00;;;17.10
30765;BMP180;494;48.744;10.106;2022-08-16T01:49:07;94976.00;;;17.20
30765;BMP180;494;48.744;10.106;2022-08-16T01:51:42;95193.00;;;17.10
30765;BMP180;494;48.744;10.106;2022-08-16T01:54:11;95195.00;;;17.10
30765;BMP180;494;48.744;10.106;2022-08-16T01:56:43;95182.00;;;17.10
30765;BMP180;494;48.744;10.106;2022-08-16T01:59:16;95195.00;;;17.20
30765;BMP180;494;48.744;10.106;2022-08-16T02:01:49;95195.00;;;17.20
30765;BMP180;494;48.744;10.106;2022-08-16T02:04:26;95059.00;;;16.20
30765;BMP180;494;48.744;10.106;2022-08-16T02:07:15;95075.00;;;17.20
30765;BMP180;494;48.744;10.106;2022-08-16T02:09:49;94850.00;;;17.10
30765;BMP180;494;48.744;10.106;2022-08-16T02:12:28;95205.00;;;16.90
30765;BMP180;494;48.744;10.106;2022-08-16T02:15:21;95191.00;;;16.80
30765;BMP180;494;48.744;10.106;2022-08-16T02:17:52;95185.00;;;16.80
30765;BMP180;494;48.744;10.106;2022-08-16T02:20:24;95116.00;;;16.90
30765;BMP180;494;48.744;10.106;2022-08-16T02:22:54;94989.00;;;16.50
30765;BMP180;494;48.744;10.106;2022-08-16T02:25:24;95105.00;;;16.90
30765;BMP180;494;48.744;10.106;2022-08-16T02:28:15;94949.00;;;15.70
30765;BMP180;494;48.744;10.106;2022-08-16T02:30:46;94859.00;;;16.80
30765;BMP180;494;48.744;10.106;2022-08-16T02:33:18;95183.00;;;16.80
30765;BMP180;494;48.744;10.106;2022-08-16T02:36:09;95182.00;;;16.90
30765;BMP180;494;48.744;10.106;2022-08-16T02:38:58;95252.00;;;16.40
30765;BMP180;494;48.744;10.106;2022-08-16T02:41:27;95109.00;;;15.60
30765;BMP180;494;48.744;10.106;2022-08-16T02:43:57;94822.00;;;16.70
30765;BMP180;494;48.744;10.106;2022-08-16T02:46:27;95001.00;;;16.80
30765;BMP180;494;48.744;10.106;2022-08-16T02:49:00;95179.00;;;16.80
30765;BMP180;494;48.744;10.106;2022-08-16T02:51:28;95182.00;;;16.80
30765;BMP180;494;48.744;10.106;2022-08-16T02:53:57;95171.00;;;16.70
30765;BMP180;494;48.744;10.106;2022-08-16T02:56:26;95186.00;;;16.70
30765;BMP180;494;48.744;10.106;2022-08-16T02:59:00;94716.00;;;16.50
30765;BMP180;494;48.744;10.106;2022-08-16T03:01:37;95162.00;;;16.60
30765;BMP180;494;48.744;10.106;2022-08-16T03:04:07;95163.00;;;16.70
30765;BMP180;494;48.744;10.106;2022-08-16T03:06:56;95166.00;;;16.60
30765;BMP180;494;48.744;10.106;2022-08-16T03:09:25;95182.00;;;16.60
30765;BMP180;494;48.744;10.106;2022-08-16T03:11:58;95215.00;;;16.20
30765;BMP180;494;48.744;10.106;2022-08-16T03:14:31;95157.00;;;16.50
30765;BMP180;494;48.744;10.106;2022-08-16T03:17:08;95221.00;;;16.60
30765;BMP180;494;48.744;10.106;2022-08-16T03:19:42;95011.00;;;16.70
30765;BMP180;494;48.744;10.106;2022-08-16T03:22:26;95213.00;;;16.60
30765;BMP180;494;48.744;10.106;2022-08-16T03:24:58;95162.00;;;16.70
30765;BMP180;494;48.744;10.106;2022-08-16T03:27:31;95160.00;;;16.30
30765;BMP180;494;48.744;10.106;2022-08-16T03:30:08;95228.00;;;16.60
30765;BMP180;494;48.744;10.106;2022-08-16T03:32:43;95153.00;;;16.60
30765;BMP180;494;48.744;10.106;2022-08-16T03:35:15;95192.00;;;16.60
30765;BMP180;494;48.744;10.106;2022-08-16T03:37:47;95184.00;;;16.60
30765;BMP180;494;48.744;10.106;2022-08-16T03:40:31;95154.00;;;16.60
30765;BMP180;494;48.744;10.106;2022-08-16T03:43:01;95242.00;;;16.70
30765;BMP180;494;48.744;10.106;2022-08-16T03:45:50;95164.00;;;16.60
30765;BMP180;494;48.744;10.106;2022-08-16T03:48:23;95160.00;;;16.60
30765;BMP180;494;48.744;10.106;2022-08-16T03:51:09;95025.00;;;16.60
30765;BMP180;494;48.744;10.106;2022-08-16T03:53:40;95165.00;;;16.60
30765;BMP180;494;48.744;10.106;2022-08-16T03:56:10;95151.00;;;15.90
30765;BMP180;494;48.744;10.106;2022-08-16T03:58:47;94949.00;;;16.50
30765;BMP180;494;48.744;10.106;2022-08-16T04:01:21;95187.00;;;16.50
30765;BMP180;494;48.744;10.106;2022-08-16T04:03:55;95166.00;;;16.40
30765;BMP180;494;48.744;10.106;2022-08-16T04:06:25;95158.00;;;16.50
30765;BMP180;494;48.744;10.106;2022-08-16T04:08:54;95153.00;;;16.40
30765;BMP180;494;48.744;10.106;2022-08-16T04:11:23;95158.00;;;16.40
30765;BMP180;494;48.744;10.106;2022-08-16T04:13:51;95161.00;;;16.30
30765;BMP180;494;48.744;10.106;2022-08-16T04:16:35;95185.00;;;16.40
30765;BMP180;494;48.744;10.106;2022-08-16T04:19:04;94783.00;;;15.70
30765;BMP180;494;48.744;10.106;2022-08-16T04:21:35;95216.00;;;16.30
30765;BMP180;494;48.744;10.106;2022-08-16T04:24:14;95167.00;;;16.30
30765;BMP180;494;48.744;10.106;2022-08-16T04:26:43;95168.00;;;16.30
30765;BMP180;494;48.744;10.106;2022-08-16T04:29:13;95164.00;;;16.30
30765;BMP180;494;48.744;10.106;2022-08-16T04:31:52;95207.00;;;16.00
30765;BMP180;494;48.744;10.106;2022-08-16T04:34:26;94929.00;;;16.30
30765;BMP180;494;48.744;10.106;2022-08-16T04:36:56;95176.00;;;16.40
30765;BMP180;494;48.744;10.106;2022-08-16T04:39:30;94838.00;;;16.20
30765;BMP180;494;48.744;10.106;2022-08-16T04:42:14;95204.00;;;16.10
30765;BMP180;494;48.744;10.106;2022-08-16T04:44:44;95185.00;;;16.30
30765;BMP180;494;48.744;10.106;2022-08-16T04:47:25;95220.00;;;16.40
30765;BMP180;494;48.744;10.106;2022-08-16T04:49:59;95206.00;;;16.30
30765;BMP180;494;48.744;10.106;2022-08-16T04:52:28;95193.00;;;16.40
30765;BMP180;494;48.744;10.106;2022-08-16T04:55:07;95192.00;;;16.40
30765;BMP180;494;48.744;10.106;2022-08-16T04:57:39;95017.00;;;16.00
30765;BMP180;494;48.744;10.106;2022-08-16T05:00:13;95192.00;;;16.40
30765;BMP180;494;48.744;10.106;2022-08-16T05:03:02;94613.00;;;16.40
30765;BMP180;494;48.744;10.106;2022-08-16T05:05:36;95266.00;;;15.90
30765;BMP180;494;48.744;10.106;2022-08-16T05:08:23;95186.00;;;16.50
30765;BMP180;494;48.744;10.106;2022-08-16T05:10:58;95190.00;;;16.60
30765;BMP180;494;48.744;10.106;2022-08-16T05:13:34;94941.00;;;16.80
30765;BMP180;494;48.744;10.106;2022-08-16T05:16:11;95193.00;;;16.80
30765;BMP180;494;48.744;10.106;2022-08-16T05:18:51;95195.00;;;16.90
30765;BMP180;494;48.744;10.106;2022-08-16T05:21:23;95214.00;;;16.90
30765;BMP180;494;48.744;10.106;2022-08-16T05:24:02;95197.00;;;17.00
30765;BMP180;494;48.744;10.106;2022-08-16T05:26:33;95183.00;;;17.10
30765;BMP180;494;48.744;10.106;2022-08-16T05:29:09;95247.00;;;17.30
30765;BMP180;494;48.744;10.106;2022-08-16T05:31:41;95052.00;;;17.10
30765;BMP180;494;48.744;10.106;2022-08-16T05:34:15;95201.00;;;17.20
30765;BMP180;494;48.744;10.106;2022-08-16T05:36:49;95241.00;;;17.00
30765;BMP180;494;48.744;10.106;2022-08-16T05:39:19;95203.00;;;17.20
30765;BMP180;494;48.744;10.106;2022-08-16T05:41:49;95214.00;;;17.40
30765;BMP180;494;48.744;10.106;2022-08-16T05:44:19;95147.00;;;17.60
30765;BMP180;494;48.744;10.106;2022-08-16T05:46:57;95201.00;;;17.80
30765;BMP180;494;48.744;10.106;2022-08-16T05:49:29;95227.00;;;17.90
30765;BMP180;494;48.744;10.106;2022-08-16T05:52:07;95212.00;;;18.10
30765;BMP180;494;48.744;10.106;2022-08-16T05:54:39;95202.00;;;18.20
30765;BMP180;494;48.744;10.106;2022-08-16T05:57:14;95203.00;;;18.60
30765;BMP180;494;48.744;10.106;2022-08-16T05:59:43;95203.00;;;18.70
30765;BMP180;494;48.744;10.106;2022-08-16T06:02:26;95204.00;;;19.10
30765;BMP180;494;48.744;10.106;2022-08-16T06:05:09;94995.00;;;19.20
30765;BMP180;494;48.744;10.106;2022-08-16T06:07:41;95130.00;;;19.30
30765;BMP180;494;48.744;10.106;2022-08-16T06:10:10;95232.00;;;19.50
30765;BMP180;494;48.744;10.106;2022-08-16T06:12:39;95274.00;;;19.40
30765;BMP180;494;48.744;10.106;2022-08-16T06:15:11;95215.00;;;19.60
30765;BMP180;494;48.744;10.106;2022-08-16T06:17:43;95131.00;;;19.50
30765;BMP180;494;48.744;10.106;2022-08-16T06:20:18;95108.00;;;19.70
30765;BMP180;494;48.744;10.106;2022-08-16T06:22:52;95016.00;;;19.70
30765;BMP180;494;48.744;10.106;2022-08-16T06:25:31;95207.00;;;19.70
30765;BMP180;494;48.744;10.106;2022-08-16T06:28:07;94696.00;;;19.60
30765;BMP180;494;48.744;10.106;2022-08-16T06:30:56;95204.00;;;19.80
30765;BMP180;494;48.744;10.106;2022-08-16T06:33:27;95051.00;;;20.30
30765;BMP180;494;48.744;10.106;2022-08-16T06:36:10;95232.00;;;20.60
30765;BMP180;494;48.744;10.106;2022-08-16T06:38:40;95192.00;;;20.90
30765;BMP180;494;48.744;10.106;2022-08-16T06:41:22;95084.00;;;20.90
30765;BMP180;494;48.744;10.106;2022-08-16T06:43:54;95203.00;;;21.10
30765;BMP180;494;48.744;10.106;2022-08-16T06:46:27;95230.00;;;21.40
30765;BMP180;494;48.744;10.106;2022-08-16T06:48:59;95196.00;;;21.60
30765;BMP180;494;48.744;10.106;2022-08-16T06:51:33;95235.00;;;21.70
30765;BMP180;494;48.744;10.106;2022-08-16T06:54:15;95201.00;;;22.10
30765;BMP180;494;48.744;10.106;2022-08-16T06:56:44;95018.00;;;22.10
30765;BMP180;494;48.744;10.106;2022-08-16T06:59:18;95195.00;;;22.10
30765;BMP180;494;48.744;10.106;2022-08-16T07:01:52;95191.00;;;22.40
30765;BMP180;494;48.744;10.106;2022-08-16T07:04:25;95197.00;;;22.60
30765;BMP180;494;48.744;10.106;2022-08-16T07:07:04;95198.00;;;23.00
30765;BMP180;494;48.744;10.106;2022-08-16T07:09:36;95201.00;;;23.00
30765;BMP180;494;48.744;10.106;2022-08-16T07:12:05;95209.00;;;23.20
30765;BMP180;494;48.744;10.106;2022-08-16T07:14:34;95203.00;;;23.10
30765;BMP180;494;48.744;10.106;2022-08-16T07:17:05;95214.00;;;23.20
30765;BMP180;494;48.744;10.106;2022-08-16T07:19:39;95207.00;;;23.30
30765;BMP180;494;48.744;10.106;2022-08-16T07:22:29;95208.00;;;23.60
30765;BMP180;494;48.744;10.106;2022-08-16T07:25:10;95024.00;;;23.20
30765;BMP180;494;48.744;10.106;2022-08-16T07:27:41;95224.00;;;23.80
30765;BMP180;494;48.744;10.106;2022-08-16T07:30:13;95139.00;;;23.60
30765;BMP180;494;48.744;10.106;2022-08-16T07:33:03;95203.00;;;24.00
30765;BMP180;494;48.744;10.106;2022-08-16T07:35:33;95206.00;;;23.90
30765;BMP180;494;48.744;10.106;2022-08-16T07:38:04;95202.00;;;24.20
30765;BMP180;494;48.744;10.106;2022-08-16T07:40:35;95129.00;;;23.40
30765;BMP180;494;48.744;10.106;2022-08-16T07:43:24;95223.00;;;24.60
30765;BMP180;494;48.744;10.106;2022-08-16T07:45:55;95194.00;;;24.90
30765;BMP180;494;48.744;10.106;2022-08-16T07:48:27;94995.00;;;25.00
30765;BMP180;494;48.744;10.106;2022-08-16T07:50:56;95145.00;;;25.10
30765;BMP180;494;48.744;10.106;2022-08-16T07:53:33;95197.00;;;25.60
30765;BMP180;494;48.744;10.106;2022-08-16T07:56:10;95196.00;;;25.70
30765;BMP180;494;48.744;10.106;2022-08-16T07:58:40;95149.00;;;25.90
30765;BMP180;494;48.744;10.106;2022-08-16T08:01:10;95204.00;;;26.10
30765;BMP180;494;48.744;10.106;2022-08-16T08:03:43;95197.00;;;26.50
30765;BMP180;494;48.744;10.106;2022-08-16T08:06:16;95219.00;;;26.80
30765;BMP180;494;48.744;10.106;2022-08-16T08:08:46;95206.00;;;27.00
30765;BMP180;494;48.744;10.106;2022-08-16T08:11:19;95197.00;;;27.10
30765;BMP180;494;48.744;10.106;2022-08-16T08:13:51;95207.00;;;27.10
30765;BMP180;494;48.744;10.106;2022-08-16T08:16:20;95202.00;;;27.30
30765;BMP180;494;48.744;10.106;2022-08-16T08:18:58;95198.00;;;27.60
30765;BMP180;494;48.744;10.106;2022-08-16T08:21:31;95035.00;;;27.80
30765;BMP180;494;48.744;10.106;2022-08-16T08:24:22;95213.00;;;27.70
30765;BMP180;494;48.744;10.106;2022-08-16T08:27:00;95227.00;;;27.90
30765;BMP180;494;48.744;10.106;2022-08-16T08:29:31;95240.00;;;27.90
30765;BMP180;494;48.744;10.106;2022-08-16T08:32:04;95220.00;;;28.10
30765;BMP180;494;48.744;10.106;2022-08-16T08:34:54;95221.00;;;28.20
30765;BMP180;494;48.744;10.106;2022-08-16T08:37:30;95238.00;;;28.00
30765;BMP180;494;48.744;10.106;2022-08-16T08:40:23;95221.00;;;28.70
30765;BMP180;494;48.744;10.106;2022-08-16T08:42:55;95230.00;;;28.80
30765;BMP180;494;48.744;10.106;2022-08-16T08:45:39;95223.00;;;29.10
30765;BMP180;494;48.744;10.106;2022-08-16T08:48:19;95225.00;;;29.30
30765;BMP180;494;48.744;10.106;2022-08-16T08:51:03;95226.00;;;29.20
30765;BMP180;494;48.744;10.106;2022-08-16T08:53:36;95229.00;;;29.40
30765;BMP180;494;48.744;10.106;2022-08-16T08:56:08;95222.00;;;29.50
30765;BMP180;494;48.744;10.106;2022-08-16T08:58:52;95258.00;;;29.40
30765;BMP180;494;48.744;10.106;2022-08-16T09:01:32;95254.00;;;29.30
30765;BMP180;494;48.744;10.106;2022-08-16T09:04:10;95165.00;;;29.60
30765;BMP180;494;48.744;10.106;2022-08-16T09:06:44;95234.00;;;30.20
30765;BMP180;494;48.744;10.106;2022-08-16T09:09:14;95231.00;;;30.20
30765;BMP180;494;48.744;10.106;2022-08-16T09:11:45;95238.00;;;30.00
30765;BMP180;494;48.744;10.106;2022-08-16T09:14:33;95241.00;;;30.30
30765;BMP180;494;48.744;10.106;2022-08-16T09:17:03;95233.00;;;30.70
30765;BMP180;494;48.744;10.106;2022-08-16T09:19:47;95243.00;;;30.30
30765;BMP180;494;48.744;10.106;2022-08-16T09:22:24;95252.00;;;30.40
30765;BMP180;494;48.744;10.106;2022-08-16T09:24:54;95236.00;;;29.90
30765;BMP180;494;48.744;10.106;2022-08-16T09:27:40;95263.00;;;30.10
30765;BMP180;494;48.744;10.106;2022-08-16T09:30:24;95233.00;;;30.30
30765;BMP180;494;48.744;10.106;2022-08-16T09:33:13;95235.00;;;30.80
30765;BMP180;494;48.744;10.106;2022-08-16T09:35:48;95245.00;;;31.20
30765;BMP180;494;48.744;10.106;2022-08-16T09:38:20;95232.00;;;31.30
30765;BMP180;494;48.744;10.106;2022-08-16T09:41:00;95182.00;;;30.70
30765;BMP180;494;48.744;10.106;2022-08-16T09:43:31;95235.00;;;31.10
30765;BMP180;494;48.744;10.106;2022-08-16T09:46:20;95084.00;;;30.40
30765;BMP180;494;48.744;10.106;2022-08-16T09:49:09;95178.00;;;30.10
30765;BMP180;494;48.744;10.106;2022-08-16T09:51:39;95243.00;;;29.50
30765;BMP180;494;48.744;10.106;2022-08-16T09:54:09;95244.00;;;30.10
30765;BMP180;494;48.744;10.106;2022-08-16T09:56:43;95088.00;;;29.50
30765;BMP180;494;48.744;10.106;2022-08-16T09:59:23;94988.00;;;29.30
30765;BMP180;494;48.744;10.106;2022-08-16T10:01:57;95249.00;;;30.30
30765;BMP180;494;48.744;10.106;2022-08-16T10:04:46;95229.00;;;30.30
30765;BMP180;494;48.744;10.106;2022-08-16T10:07:22;94930.00;;;30.90
30765;BMP180;494;48.744;10.106;2022-08-16T10:09:51;95262.00;;;31.50
30765;BMP180;494;48.744;10.106;2022-08-16T10:12:24;95127.00;;;31.80
30765;BMP180;494;48.744;10.106;2022-08-16T10:15:16;95083.00;;;31.70
30765;BMP180;494;48.744;10.106;2022-08-16T10:17:52;95228.00;;;31.90
30765;BMP180;494;48.744;10.106;2022-08-16T10:20:31;95219.00;;;32.30
30765;BMP180;494;48.744;10.106;2022-08-16T10:23:03;95223.00;;;32.20
30765;BMP180;494;48.744;10.106;2022-08-16T10:25:36;95026.00;;;31.80
30765;BMP180;494;48.744;10.106;2022-08-16T10:28:27;95225.00;;;33.00
30765;BMP180;494;48.744;10.106;2022-08-16T10:31:09;95272.00;;;32.30
30765;BMP180;494;48.744;10.106;2022-08-16T10:33:57;95125.00;;;32.00
30765;BMP180;494;48.744;10.106;2022-08-16T10:36:27;95104.00;;;30.90
30765;BMP180;494;48.744;10.106;2022-08-16T10:39:06;95013.00;;;32.10
30765;BMP180;494;48.744;10.106;2022-08-16T10:41:35;95207.00;;;32.60
30765;BMP180;494;48.744;10.106;2022-08-16T10:44:04;95243.00;;;32.70
30765;BMP180;494;48.744;10.106;2022-08-16T10:46:37;94868.00;;;31.10
30765;BMP180;494;48.744;10.106;2022-08-16T10:49:09;94919.00;;;31.40
30765;BMP180;494;48.744;10.106;2022-08-16T10:51:44;95060.00;;;31.00
30765;BMP180;494;48.744;10.106;2022-08-16T10:54:33;95240.00;;;30.90
30765;BMP180;494;48.744;10.106;2022-08-16T10:57:22;95246.00;;;30.60
30765;BMP180;494;48.744;10.106;2022-08-16T10:59:50;95078.00;;;30.10
30765;BMP180;494;48.744;10.106;2022-08-16T11:02:26;95061.00;;;30.60
30765;BMP180;494;48.744;10.106;2022-08-16T11:05:16;94985.00;;;30.30
30765;BMP180;494;48.744;10.106;2022-08-16T11:07:47;95248.00;;;30.50
30765;BMP180;494;48.744;10.106;2022-08-16T11:10:23;95268.00;;;29.90
30765;BMP180;494;48.744;10.106;2022-08-16T11:13:16;94990.00;;;30.20
30765;BMP180;494;48.744;10.106;2022-08-16T11:16:06;95234.00;;;30.30
30765;BMP180;494;48.744;10.106;2022-08-16T11:18:56;95060.00;;;29.90
30765;BMP180;494;48.744;10.106;2022-08-16T11:21:39;95307.00;;;30.40
30765;BMP180;494;48.744;10.106;2022-08-16T11:24:28;94791.00;;;30.30
30765;BMP180;494;48.744;10.106;2022-08-16T11:27:14;95321.00;;;30.60
30765;BMP180;494;48.744;10.106;2022-08-16T11:29:48;94680.00;;;30.80
30765;BMP180;494;48.744;10.106;2022-08-16T11:32:19;95266.00;;;31.00
30765;BMP180;494;48.744;10.106;2022-08-16T11:35:04;95292.00;;;31.20
30765;BMP180;494;48.744;10.106;2022-08-16T11:37:43;95285.00;;;31.60
30765;BMP180;494;48.744;10.106;2022-08-16T11:40:37;95250.00;;;31.60
30765;BMP180;494;48.744;10.106;2022-08-16T11:43:11;94969.00;;;32.00
30765;BMP180;494;48.744;10.106;2022-08-16T11:45:44;94809.00;;;33.80
30765;BMP180;494;48.744;10.106;2022-08-16T11:48:23;95249.00;;;34.00
30765;BMP180;494;48.744;10.106;2022-08-16T11:50:54;95239.00;;;34.20
30765;BMP180;494;48.744;10.106;2022-08-16T11:53:23;95080.00;;;34.10
30765;BMP180;494;48.744;10.106;2022-08-16T11:55:54;94910.00;;;34.00
30765;BMP180;494;48.744;10.106;2022-08-16T11:58:29;95239.00;;;34.00
30765;BMP180;494;48.744;10.106;2022-08-16T12:00:59;95249.00;;;34.00
30765;BMP180;494;48.744;10.106;2022-08-16T12:03:30;95252.00;;;34.10
30765;BMP180;494;48.744;10.106;2022-08-16T12:06:08;95241.00;;;34.50
30765;BMP180;494;48.744;10.106;2022-08-16T12:08:53;95076.00;;;34.80
30765;BMP180;494;48.744;10.106;2022-08-16T12:11:28;95284.00;;;35.20
30765;BMP180;494;48.744;10.106;2022-08-16T12:13:59;95251.00;;;35.40
30765;BMP180;494;48.744;10.106;2022-08-16T12:16:31;95250.00;;;35.70
30765;BMP180;494;48.744;10.106;2022-08-16T12:19:02;95261.00;;;35.80
30765;BMP180;494;48.744;10.106;2022-08-16T12:21:33;94885.00;;;36.40
30765;BMP180;494;48.744;10.106;2022-08-16T12:24:22;95238.00;;;36.60
30765;BMP180;494;48.744;10.106;2022-08-16T12:26:50;95236.00;;;36.20
30765;BMP180;494;48.744;10.106;2022-08-16T12:29:20;95211.00;;;35.90
30765;BMP180;494;48.744;10.106;2022-08-16T12:31:52;95304.00;;;35.80
30765;BMP180;494;48.744;10.106;2022-08-16T12:34:27;94877.00;;;35.80
30765;BMP180;494;48.744;10.106;2022-08-16T12:36:58;95204.00;;;35.30
30765;BMP180;494;48.744;10.106;2022-08-16T12:39:32;95241.00;;;36.60
30765;BMP180;494;48.744;10.106;2022-08-16T12:42:02;95239.00;;;36.00
30765;BMP180;494;48.744;10.106;2022-08-16T12:44:30;95242.00;;;36.00
30765;BMP180;494;48.744;10.106;2022-08-16T12:46:59;95041.00;;;35.40
30765;BMP180;494;48.744;10.106;2022-08-16T12:49:45;95266.00;;;35.50
30765;BMP180;494;48.744;10.106;2022-08-16T12:52:18;95236.00;;;35.90
30765;BMP180;494;48.744;10.106;2022-08-16T12:55:07;95001.00;;;36.20
30765;BMP180;494;48.744;10.106;2022-08-16T12:57:40;95233.00;;;36.20
30765;BMP180;494;48.744;10.106;2022-08-16T13:00:14;95230.00;;;36.80
30765;BMP180;494;48.744;10.106;2022-08-16T13:02:52;95230.00;;;36.70
30765;BMP180;494;48.744;10.106;2022-08-16T13:05:22;95226.00;;;37.00
30765;BMP180;494;48.744;10.106;2022-08-16T13:07:52;95226.00;;;37.20
30765;BMP180;494;48.744;10.106;2022-08-16T13:10:21;95219.00;;;36.00
30765;BMP180;494;48.744;10.106;2022-08-16T13:13:05;94784.00;;;33.90
30765;BMP180;494;48.744;10.106;2022-08-16T13:15:42;95043.00;;;34.50
30765;BMP180;494;48.744;10.106;2022-08-16T13:18:28;95224.00;;;34.10
30765;BMP180;494;48.744;10.106;2022-08-16T13:21:03;95220.00;;;33.80
30765;BMP180;494;48.744;10.106;2022-08-16T13:23:34;95216.00;;;33.70
30765;BMP180;494;48.744;10.106;2022-08-16T13:26:10;95231.00;;;33.30
30765;BMP180;494;48.744;10.106;2022-08-16T13:28:43;95214.00;;;34.10
30765;BMP180;494;48.744;10.106;2022-08-16T13:31:14;95119.00;;;35.50
30765;BMP180;494;48.744;10.106;2022-08-16T13:33:43;95214.00;;;35.70
30765;BMP180;494;48.744;10.106;2022-08-16T13:36:12;95215.00;;;35.40
30765;BMP180;494;48.744;10.106;2022-08-16T13:39:04;95221.00;;;35.00
30765;BMP180;494;48.744;10.106;2022-08-16T13:41:32;95218.00;;;34.00
30765;BMP180;494;48.744;10.106;2022-08-16T13:44:02;95217.00;;;33.60
30765;BMP180;494;48.744;10.106;2022-08-16T13:46:36;95186.00;;;33.10
30765;BMP180;494;48.744;10.106;2022-08-16T13:49:04;94950.00;;;32.10
30765;BMP180;494;48.744;10.106;2022-08-16T13:51:33;95212.00;;;32.60
30765;BMP180;494;48.744;10.106;2022-08-16T13:54:06;95110.00;;;31.50
30765;BMP180;494;48.744;10.106;2022-08-16T13:56:36;95144.00;;;33.60
30765;BMP180;494;48.744;10.106;2022-08-16T13:59:09;95233.00;;;35.60
30765;BMP180;494;48.744;10.106;2022-08-16T14:01:48;95019.00;;;37.20
30765;BMP180;494;48.744;10.106;2022-08-16T14:04:23;95204.00;;;37.50
30765;BMP180;494;48.744;10.106;2022-08-16T14:06:55;95246.00;;;36.80
30765;BMP180;494;48.744;10.106;2022-08-16T14:09:26;95185.00;;;37.80
30765;BMP180;494;48.744;10.106;2022-08-16T14:11:58;95190.00;;;37.60
30765;BMP180;494;48.744;10.106;2022-08-16T14:14:28;95185.00;;;38.10
30765;BMP180;494;48.744;10.106;2022-08-16T14:16:58;94641.00;;;37.50
30765;BMP180;494;48.744;10.106;2022-08-16T14:19:28;95039.00;;;39.00
30765;BMP180;494;48.744;10.106;2022-08-16T14:22:00;95040.00;;;37.30
30765;BMP180;494;48.744;10.106;2022-08-16T14:24:44;94987.00;;;37.50
30765;BMP180;494;48.744;10.106;2022-08-16T14:27:14;95215.00;;;38.40
30765;BMP180;494;48.744;10.106;2022-08-16T14:29:44;95198.00;;;38.60
30765;BMP180;494;48.744;10.106;2022-08-16T14:32:16;95165.00;;;37.80
30765;BMP180;494;48.744;10.106;2022-08-16T14:35:02;95208.00;;;37.40
30765;BMP180;494;48.744;10.106;2022-08-16T14:37:33;95226.00;;;38.20
30765;BMP180;494;48.744;10.106;2022-08-16T14:40:07;95201.00;;;39.30
30765;BMP180;494;48.744;10.106;2022-08-16T14:42:38;95210.00;;;40.30
30765;BMP180;494;48.744;10.106;2022-08-16T14:45:12;94987.00;;;40.50
30765;BMP180;494;48.744;10.106;2022-08-16T14:47:41;95201.00;;;40.50
30765;BMP180;494;48.744;10.106;2022-08-16T14:50:13;95190.00;;;40.40
30765;BMP180;494;48.744;10.106;2022-08-16T14:52:44;94889.00;;;39.20
30765;BMP180;494;48.744;10.106;2022-08-16T14:55:27;95190.00;;;38.50
30765;BMP180;494;48.744;10.106;2022-08-16T14:57:57;95013.00;;;37.70
30765;BMP180;494;48.744;10.106;2022-08-16T15:00:28;95020.00;;;38.00
30765;BMP180;494;48.744;10.106;2022-08-16T15:03:07;95125.00;;;38.90
30765;BMP180;494;48.744;10.106;2022-08-16T15:05:39;95197.00;;;38.60
30765;BMP180;494;48.744;10.106;2022-08-16T15:08:09;95189.00;;;40.20
30765;BMP180;494;48.744;10.106;2022-08-16T15:10:39;95186.00;;;40.20